OCN9Z EDDF-LGIR
Flight info
| Callsign | OCN9Z |
|---|---|
| Flight time | 2h 39m |
| Altitude | 35000 |
| Route | CINDY8S/18 CINDY Z74 LAMPU DCT NOMBO Y161 MAH DCT VAVOR DCT RADIZ DCT PINDO UL607 GIVIS T514 XAVIS |
| Aircraft | A320/M-SDE2E3FGIJ1LORWXYZ/HB1 |
Departure
| Time | 2026-05-05 18:04 |
|---|---|
| Airport | Frankfurt Main Airport (EDDF) |
Arrival
| Time | 2026-05-05 20:44 |
|---|---|
| Airport | Heraklion International Nikos Kazantzakis Airport (LGIR) |
| Time | Latitude | Longitude | Altitude | Speed | Heading |
|---|---|---|---|---|---|
| 2026-05-05 17:14 | 50.04737 | 8.56737 | 356 ft | 0 kts | 115° |
| 2026-05-05 17:32 | 50.04737 | 8.56736 | 356 ft | 0 kts | 115° |
| 2026-05-05 17:43 | 50.04740 | 8.56724 | 364 ft | 4 kts | 107° |
| 2026-05-05 17:43 | 50.04747 | 8.56692 | 360 ft | 4 kts | 120° |
| 2026-05-05 17:43 | 50.04764 | 8.56670 | 361 ft | 4 kts | 180° |
| 2026-05-05 17:44 | 50.04787 | 8.56677 | 357 ft | 1 kts | 205° |
| 2026-05-05 17:44 | 50.04788 | 8.56678 | 357 ft | 0 kts | 205° |
| 2026-05-05 17:47 | 50.04782 | 8.56674 | 358 ft | 5 kts | 205° |
| 2026-05-05 17:47 | 50.04721 | 8.56588 | 363 ft | 14 kts | 231° |
| 2026-05-05 17:47 | 50.04639 | 8.56505 | 362 ft | 15 kts | 204° |
| 2026-05-05 17:48 | 50.04544 | 8.56436 | 357 ft | 16 kts | 212° |
| 2026-05-05 17:48 | 50.04493 | 8.56284 | 357 ft | 16 kts | 250° |
| 2026-05-05 17:48 | 50.04474 | 8.56205 | 358 ft | 0 kts | 249° |
| 2026-05-05 17:49 | 50.04472 | 8.56200 | 357 ft | 0 kts | 249° |
| 2026-05-05 17:49 | 50.04472 | 8.56197 | 357 ft | 2 kts | 249° |
| 2026-05-05 17:49 | 50.04461 | 8.56153 | 358 ft | 4 kts | 250° |
| 2026-05-05 17:50 | 50.04441 | 8.56065 | 362 ft | 12 kts | 250° |
| 2026-05-05 17:50 | 50.04382 | 8.56033 | 358 ft | 1 kts | 162° |
| 2026-05-05 17:51 | 50.04334 | 8.56061 | 360 ft | 9 kts | 159° |
| 2026-05-05 17:51 | 50.04272 | 8.56060 | 361 ft | 12 kts | 220° |
| 2026-05-05 17:51 | 50.04229 | 8.55899 | 354 ft | 18 kts | 249° |
| 2026-05-05 17:52 | 50.04194 | 8.55749 | 358 ft | 11 kts | 250° |
| 2026-05-05 17:52 | 50.04167 | 8.55638 | 361 ft | 11 kts | 250° |
| 2026-05-05 17:52 | 50.04140 | 8.55522 | 354 ft | 11 kts | 249° |
| 2026-05-05 17:52 | 50.04112 | 8.55409 | 352 ft | 10 kts | 250° |
| 2026-05-05 17:53 | 50.04095 | 8.55335 | 361 ft | 6 kts | 250° |
| 2026-05-05 17:53 | 50.04085 | 8.55291 | 354 ft | 4 kts | 250° |
| 2026-05-05 17:53 | 50.04068 | 8.55221 | 354 ft | 10 kts | 250° |
| 2026-05-05 17:53 | 50.04036 | 8.55087 | 353 ft | 15 kts | 249° |
| 2026-05-05 17:54 | 50.03998 | 8.54930 | 358 ft | 17 kts | 249° |
| 2026-05-05 17:54 | 50.03957 | 8.54760 | 355 ft | 16 kts | 250° |
| 2026-05-05 17:54 | 50.03916 | 8.54589 | 350 ft | 17 kts | 249° |
| 2026-05-05 17:54 | 50.03876 | 8.54421 | 354 ft | 16 kts | 250° |
| 2026-05-05 17:55 | 50.03819 | 8.54281 | 350 ft | 15 kts | 234° |
| 2026-05-05 17:55 | 50.03775 | 8.54121 | 349 ft | 17 kts | 249° |
| 2026-05-05 17:55 | 50.03732 | 8.53940 | 349 ft | 19 kts | 250° |
| 2026-05-05 17:55 | 50.03686 | 8.53743 | 350 ft | 17 kts | 250° |
| 2026-05-05 17:56 | 50.03646 | 8.53586 | 338 ft | 15 kts | 246° |
| 2026-05-05 17:56 | 50.03609 | 8.53438 | 340 ft | 14 kts | 249° |
| 2026-05-05 17:56 | 50.03578 | 8.53307 | 335 ft | 13 kts | 249° |
| 2026-05-05 17:56 | 50.03550 | 8.53192 | 339 ft | 8 kts | 250° |
| 2026-05-05 17:57 | 50.03536 | 8.53134 | 338 ft | 5 kts | 250° |
| 2026-05-05 17:57 | 50.03525 | 8.53088 | 335 ft | 6 kts | 250° |
| 2026-05-05 17:57 | 50.03504 | 8.53001 | 335 ft | 9 kts | 249° |
| 2026-05-05 17:57 | 50.03482 | 8.52910 | 336 ft | 8 kts | 248° |
| 2026-05-05 17:58 | 50.03465 | 8.52848 | 336 ft | 0 kts | 246° |
| 2026-05-05 17:59 | 50.03464 | 8.52848 | 336 ft | 1 kts | 246° |
| 2026-05-05 17:59 | 50.03447 | 8.52786 | 333 ft | 10 kts | 248° |
| 2026-05-05 18:00 | 50.03435 | 8.52738 | 336 ft | 0 kts | 249° |
| 2026-05-05 18:01 | 50.03426 | 8.52698 | 333 ft | 9 kts | 249° |
| 2026-05-05 18:02 | 50.03404 | 8.52616 | 332 ft | 7 kts | 237° |
| 2026-05-05 18:02 | 50.03370 | 8.52595 | 334 ft | 4 kts | 181° |
| 2026-05-05 18:02 | 50.03369 | 8.52595 | 334 ft | 0 kts | 181° |
| 2026-05-05 18:03 | 50.03364 | 8.52595 | 335 ft | 5 kts | 181° |
| 2026-05-05 18:03 | 50.03143 | 8.52594 | 332 ft | 66 kts | 179° |
| 2026-05-05 18:04 | 50.02468 | 8.52603 | 335 ft | 125 kts | 179° |
| 2026-05-05 18:04 | 50.01436 | 8.52614 | 347 ft | 169 kts | 179° |
| 2026-05-05 18:04 | 50.00259 | 8.52648 | 881 ft | 172 kts | 180° |
| 2026-05-05 18:04 | 49.99065 | 8.52658 | 1581 ft | 173 kts | 182° |
| 2026-05-05 18:05 | 49.97798 | 8.52692 | 1939 ft | 193 kts | 174° |
| 2026-05-05 18:05 | 49.96495 | 8.53560 | 2169 ft | 219 kts | 140° |
| 2026-05-05 18:05 | 49.95569 | 8.55550 | 2615 ft | 236 kts | 121° |
| 2026-05-05 18:05 | 49.94764 | 8.57778 | 3398 ft | 237 kts | 121° |
| 2026-05-05 18:06 | 49.94114 | 8.60147 | 4151 ft | 242 kts | 103° |
| 2026-05-05 18:06 | 49.93970 | 8.61957 | 4462 ft | 258 kts | 95° |
| 2026-05-05 18:06 | 49.93808 | 8.65803 | 5234 ft | 276 kts | 99° |
| 2026-05-05 18:06 | 49.93292 | 8.68667 | 6051 ft | 277 kts | 118° |
| 2026-05-05 18:07 | 49.92206 | 8.71110 | 6864 ft | 276 kts | 137° |
| 2026-05-05 18:07 | 49.90699 | 8.72946 | 7680 ft | 276 kts | 148° |
| 2026-05-05 18:07 | 49.89147 | 8.74736 | 8488 ft | 282 kts | 140° |
| 2026-05-05 18:07 | 49.87859 | 8.77068 | 9281 ft | 289 kts | 124° |
| 2026-05-05 18:08 | 49.86863 | 8.79814 | 10035 ft | 294 kts | 121° |
| 2026-05-05 18:08 | 49.85833 | 8.82692 | 10316 ft | 316 kts | 122° |
| 2026-05-05 18:08 | 49.84721 | 8.85767 | 10508 ft | 339 kts | 122° |
| 2026-05-05 18:08 | 49.83537 | 8.89030 | 10949 ft | 352 kts | 122° |
| 2026-05-05 18:09 | 49.82326 | 8.92355 | 11575 ft | 357 kts | 122° |
| 2026-05-05 18:09 | 49.81098 | 8.95723 | 12237 ft | 361 kts | 122° |
| 2026-05-05 18:09 | 49.79856 | 8.99128 | 12887 ft | 366 kts | 122° |
| 2026-05-05 18:09 | 49.78597 | 9.02580 | 13563 ft | 370 kts | 122° |
| 2026-05-05 18:10 | 49.77327 | 9.06062 | 14162 ft | 373 kts | 122° |
| 2026-05-05 18:10 | 49.76201 | 9.09704 | 14768 ft | 379 kts | 112° |
| 2026-05-05 18:10 | 49.75487 | 9.13645 | 15382 ft | 383 kts | 106° |
| 2026-05-05 18:10 | 49.74633 | 9.17470 | 15984 ft | 382 kts | 117° |
| 2026-05-05 18:11 | 49.73311 | 9.21025 | 16610 ft | 381 kts | 128° |
| 2026-05-05 18:11 | 49.71621 | 9.24173 | 17235 ft | 381 kts | 134° |
| 2026-05-05 18:11 | 49.69866 | 9.27246 | 17849 ft | 383 kts | 134° |
| 2026-05-05 18:11 | 49.68108 | 9.30344 | 18405 ft | 385 kts | 134° |
| 2026-05-05 18:12 | 49.66340 | 9.33463 | 18917 ft | 386 kts | 133° |
| 2026-05-05 18:12 | 49.64570 | 9.36591 | 19418 ft | 388 kts | 133° |
| 2026-05-05 18:12 | 49.62769 | 9.39706 | 19913 ft | 389 kts | 137° |
| 2026-05-05 18:12 | 49.60706 | 9.42406 | 20414 ft | 389 kts | 147° |
| 2026-05-05 18:13 | 49.58399 | 9.44602 | 20893 ft | 391 kts | 150° |
| 2026-05-05 18:13 | 49.56056 | 9.46737 | 21371 ft | 392 kts | 150° |
| 2026-05-05 18:13 | 49.53697 | 9.48885 | 21824 ft | 395 kts | 150° |
| 2026-05-05 18:13 | 49.51328 | 9.51043 | 22299 ft | 397 kts | 150° |
| 2026-05-05 18:14 | 49.48943 | 9.53217 | 22755 ft | 399 kts | 150° |
| 2026-05-05 18:14 | 49.46548 | 9.55402 | 23214 ft | 401 kts | 150° |
| 2026-05-05 18:14 | 49.44139 | 9.57596 | 23622 ft | 403 kts | 150° |
| 2026-05-05 18:14 | 49.41720 | 9.59792 | 24002 ft | 405 kts | 150° |
| 2026-05-05 18:15 | 49.39287 | 9.61999 | 24381 ft | 407 kts | 150° |
| 2026-05-05 18:15 | 49.36844 | 9.64219 | 24754 ft | 408 kts | 150° |
| 2026-05-05 18:15 | 49.34438 | 9.66554 | 25110 ft | 411 kts | 144° |
| 2026-05-05 18:15 | 49.32278 | 9.69438 | 25454 ft | 414 kts | 136° |
| 2026-05-05 18:16 | 49.30243 | 9.72580 | 25770 ft | 417 kts | 136° |
| 2026-05-05 18:16 | 49.28192 | 9.75728 | 26116 ft | 418 kts | 136° |
| 2026-05-05 18:16 | 49.26121 | 9.78886 | 26470 ft | 420 kts | 137° |
| 2026-05-05 18:16 | 49.24045 | 9.82041 | 26814 ft | 421 kts | 137° |
| 2026-05-05 18:17 | 49.21989 | 9.85161 | 27178 ft | 422 kts | 137° |
| 2026-05-05 18:17 | 49.19873 | 9.88370 | 27531 ft | 424 kts | 137° |
| 2026-05-05 18:17 | 49.17801 | 9.91510 | 27870 ft | 425 kts | 137° |
| 2026-05-05 18:17 | 49.15696 | 9.94698 | 28185 ft | 427 kts | 137° |
| 2026-05-05 18:18 | 49.13582 | 9.97896 | 28494 ft | 428 kts | 137° |
| 2026-05-05 18:18 | 49.11458 | 10.01108 | 28786 ft | 430 kts | 137° |
| 2026-05-05 18:18 | 49.09327 | 10.04323 | 29085 ft | 432 kts | 137° |
| 2026-05-05 18:18 | 49.07188 | 10.07548 | 29374 ft | 434 kts | 137° |
| 2026-05-05 18:19 | 49.05735 | 10.09730 | 29551 ft | 435 kts | 138° |
| 2026-05-05 18:19 | 49.03577 | 10.12883 | 29822 ft | 436 kts | 139° |
| 2026-05-05 18:19 | 49.01354 | 10.16042 | 30067 ft | 438 kts | 139° |
| 2026-05-05 18:19 | 48.99318 | 10.19512 | 30334 ft | 440 kts | 132° |
| 2026-05-05 18:20 | 48.97386 | 10.23131 | 30700 ft | 438 kts | 132° |
| 2026-05-05 18:20 | 48.95469 | 10.26732 | 31018 ft | 437 kts | 132° |
| 2026-05-05 18:20 | 48.93524 | 10.30296 | 31328 ft | 437 kts | 133° |
| 2026-05-05 18:20 | 48.91552 | 10.33811 | 31620 ft | 437 kts | 134° |
| 2026-05-05 18:21 | 48.89565 | 10.37301 | 31913 ft | 437 kts | 134° |
| 2026-05-05 18:21 | 48.87573 | 10.40783 | 32211 ft | 436 kts | 134° |
| 2026-05-05 18:21 | 48.85587 | 10.44262 | 32503 ft | 436 kts | 134° |
| 2026-05-05 18:21 | 48.83600 | 10.47747 | 32792 ft | 436 kts | 134° |
| 2026-05-05 18:22 | 48.81618 | 10.51236 | 33061 ft | 437 kts | 134° |
| 2026-05-05 18:22 | 48.79633 | 10.54742 | 33227 ft | 439 kts | 135° |
| 2026-05-05 18:22 | 48.77642 | 10.58255 | 33451 ft | 440 kts | 135° |
| 2026-05-05 18:22 | 48.75646 | 10.61775 | 33695 ft | 441 kts | 135° |
| 2026-05-05 18:23 | 48.73645 | 10.65296 | 33951 ft | 441 kts | 135° |
| 2026-05-05 18:23 | 48.71637 | 10.68813 | 34193 ft | 441 kts | 135° |
| 2026-05-05 18:23 | 48.69626 | 10.72324 | 34440 ft | 441 kts | 135° |
| 2026-05-05 18:23 | 48.67617 | 10.75827 | 34691 ft | 441 kts | 135° |
| 2026-05-05 18:24 | 48.65631 | 10.79290 | 34809 ft | 441 kts | 135° |
| 2026-05-05 18:24 | 48.61617 | 10.86283 | 34833 ft | 440 kts | 135° |
| 2026-05-05 18:25 | 48.57610 | 10.93267 | 34833 ft | 440 kts | 136° |
| 2026-05-05 18:25 | 48.53598 | 11.00230 | 34820 ft | 440 kts | 136° |
| 2026-05-05 18:26 | 48.49565 | 11.07194 | 34839 ft | 440 kts | 136° |
| 2026-05-05 18:26 | 48.45532 | 11.14147 | 34837 ft | 441 kts | 136° |
| 2026-05-05 18:27 | 48.41497 | 11.21098 | 34833 ft | 440 kts | 137° |
| 2026-05-05 18:27 | 48.37453 | 11.28040 | 34800 ft | 441 kts | 137° |
| 2026-05-05 18:28 | 48.31376 | 11.38423 | 34814 ft | 441 kts | 137° |
| 2026-05-05 18:28 | 48.27341 | 11.45295 | 34819 ft | 441 kts | 137° |
| 2026-05-05 18:29 | 48.23283 | 11.52199 | 34823 ft | 441 kts | 137° |
| 2026-05-05 18:29 | 48.19212 | 11.59101 | 34823 ft | 442 kts | 137° |
| 2026-05-05 18:30 | 48.15140 | 11.65986 | 34800 ft | 442 kts | 137° |
| 2026-05-05 18:30 | 48.11057 | 11.72862 | 34807 ft | 442 kts | 137° |
| 2026-05-05 18:31 | 48.06970 | 11.79741 | 34814 ft | 442 kts | 137° |
| 2026-05-05 18:31 | 48.02882 | 11.86595 | 34823 ft | 442 kts | 137° |
| 2026-05-05 18:32 | 47.98788 | 11.93440 | 34824 ft | 442 kts | 137° |
| 2026-05-05 18:32 | 47.94692 | 12.00285 | 34801 ft | 442 kts | 137° |
| 2026-05-05 18:33 | 47.90583 | 12.07124 | 34812 ft | 443 kts | 137° |
| 2026-05-05 18:33 | 47.86492 | 12.13936 | 34815 ft | 444 kts | 137° |
| 2026-05-05 18:34 | 47.82399 | 12.20832 | 34820 ft | 445 kts | 137° |
| 2026-05-05 18:34 | 47.78300 | 12.27737 | 34824 ft | 445 kts | 137° |
| 2026-05-05 18:35 | 47.74194 | 12.34632 | 34816 ft | 445 kts | 137° |
| 2026-05-05 18:35 | 47.70075 | 12.41497 | 34825 ft | 445 kts | 137° |
| 2026-05-05 18:36 | 47.65943 | 12.48360 | 34835 ft | 446 kts | 137° |
| 2026-05-05 18:36 | 47.63868 | 12.51798 | 35000 ft | 447 kts | 137° |
| 2026-05-05 18:36 | 47.61753 | 12.55160 | 35243 ft | 445 kts | 139° |
| 2026-05-05 18:37 | 47.59569 | 12.58393 | 35490 ft | 443 kts | 141° |
| 2026-05-05 18:37 | 47.57328 | 12.61527 | 35729 ft | 442 kts | 142° |
| 2026-05-05 18:37 | 47.55062 | 12.64597 | 35899 ft | 442 kts | 142° |
| 2026-05-05 18:37 | 47.52780 | 12.67660 | 36029 ft | 443 kts | 142° |
| 2026-05-05 18:38 | 47.50524 | 12.70701 | 36145 ft | 445 kts | 142° |
| 2026-05-05 18:38 | 47.48246 | 12.73807 | 36307 ft | 446 kts | 142° |
| 2026-05-05 18:38 | 47.45979 | 12.76936 | 36440 ft | 447 kts | 141° |
| 2026-05-05 18:38 | 47.43716 | 12.80082 | 36641 ft | 447 kts | 141° |
| 2026-05-05 18:39 | 47.41457 | 12.83230 | 36826 ft | 447 kts | 141° |
| 2026-05-05 18:39 | 47.39191 | 12.86376 | 36859 ft | 447 kts | 141° |
| 2026-05-05 18:39 | 47.34649 | 12.92637 | 36859 ft | 447 kts | 142° |
| 2026-05-05 18:40 | 47.30091 | 12.98883 | 36881 ft | 448 kts | 141° |
| 2026-05-05 18:40 | 47.25532 | 13.05124 | 36876 ft | 448 kts | 141° |
| 2026-05-05 18:41 | 47.20954 | 13.11376 | 36911 ft | 450 kts | 141° |
| 2026-05-05 18:41 | 47.16362 | 13.17652 | 36927 ft | 451 kts | 141° |
| 2026-05-05 18:42 | 47.11768 | 13.23895 | 36922 ft | 450 kts | 141° |
| 2026-05-05 18:42 | 47.07162 | 13.30127 | 36931 ft | 451 kts | 141° |
| 2026-05-05 18:43 | 47.02546 | 13.36364 | 36936 ft | 451 kts | 141° |
| 2026-05-05 18:43 | 46.97962 | 13.42557 | 36964 ft | 451 kts | 141° |
| 2026-05-05 18:44 | 46.93348 | 13.48777 | 36957 ft | 450 kts | 141° |
| 2026-05-05 18:44 | 46.88727 | 13.54980 | 36976 ft | 452 kts | 141° |
| 2026-05-05 18:45 | 46.84093 | 13.61187 | 36962 ft | 452 kts | 141° |
| 2026-05-05 18:45 | 46.79449 | 13.67402 | 36965 ft | 453 kts | 141° |
| 2026-05-05 18:46 | 46.74795 | 13.73606 | 36976 ft | 453 kts | 142° |
| 2026-05-05 18:46 | 46.70143 | 13.79783 | 36983 ft | 452 kts | 142° |
| 2026-05-05 18:47 | 46.65521 | 13.85918 | 36982 ft | 452 kts | 142° |
| 2026-05-05 18:47 | 46.60869 | 13.92081 | 36970 ft | 452 kts | 141° |
| 2026-05-05 18:48 | 46.56207 | 13.98233 | 36970 ft | 453 kts | 141° |
| 2026-05-05 18:48 | 46.51531 | 14.04382 | 36979 ft | 453 kts | 142° |
| 2026-05-05 18:49 | 46.46854 | 14.10521 | 36979 ft | 453 kts | 142° |
| 2026-05-05 18:49 | 46.42176 | 14.16659 | 36986 ft | 453 kts | 142° |
| 2026-05-05 18:50 | 46.37497 | 14.22793 | 36994 ft | 453 kts | 141° |
| 2026-05-05 18:50 | 46.32816 | 14.28904 | 37003 ft | 453 kts | 141° |
| 2026-05-05 18:51 | 46.28122 | 14.35002 | 37010 ft | 454 kts | 141° |
| 2026-05-05 18:51 | 46.23425 | 14.41098 | 37012 ft | 454 kts | 142° |
| 2026-05-05 18:52 | 46.18720 | 14.47189 | 37012 ft | 454 kts | 142° |
| 2026-05-05 18:52 | 46.14007 | 14.53268 | 36999 ft | 454 kts | 141° |
| 2026-05-05 18:53 | 46.09320 | 14.59310 | 37011 ft | 454 kts | 141° |
| 2026-05-05 18:53 | 46.04605 | 14.65378 | 37014 ft | 454 kts | 141° |
| 2026-05-05 18:54 | 45.99880 | 14.71431 | 37016 ft | 455 kts | 142° |
| 2026-05-05 18:54 | 45.95149 | 14.77479 | 36988 ft | 455 kts | 142° |
| 2026-05-05 18:55 | 45.90418 | 14.83523 | 37001 ft | 455 kts | 141° |
| 2026-05-05 18:55 | 45.85684 | 14.89558 | 37013 ft | 454 kts | 141° |
| 2026-05-05 18:56 | 45.80957 | 14.95567 | 37012 ft | 454 kts | 141° |
| 2026-05-05 18:56 | 45.76230 | 15.01557 | 37016 ft | 453 kts | 142° |
| 2026-05-05 18:57 | 45.71538 | 15.07490 | 37001 ft | 454 kts | 142° |
| 2026-05-05 18:57 | 45.66795 | 15.13466 | 36997 ft | 454 kts | 142° |
| 2026-05-05 18:58 | 45.62048 | 15.19439 | 36998 ft | 455 kts | 142° |
| 2026-05-05 18:58 | 45.57302 | 15.25406 | 37008 ft | 455 kts | 142° |
| 2026-05-05 18:59 | 45.52551 | 15.31370 | 36986 ft | 455 kts | 142° |
| 2026-05-05 18:59 | 45.47786 | 15.37326 | 36999 ft | 455 kts | 142° |
| 2026-05-05 19:00 | 45.43024 | 15.43260 | 36997 ft | 455 kts | 142° |
| 2026-05-05 19:00 | 45.38252 | 15.49193 | 37006 ft | 455 kts | 142° |
| 2026-05-05 19:01 | 45.33478 | 15.55117 | 37009 ft | 455 kts | 142° |
| 2026-05-05 19:01 | 45.28737 | 15.60995 | 37001 ft | 455 kts | 142° |
| 2026-05-05 19:02 | 45.23957 | 15.66906 | 36993 ft | 456 kts | 142° |
| 2026-05-05 19:02 | 45.19158 | 15.72810 | 36991 ft | 456 kts | 142° |
| 2026-05-05 19:03 | 45.14357 | 15.78707 | 36997 ft | 457 kts | 142° |
| 2026-05-05 19:03 | 45.09550 | 15.84603 | 37004 ft | 457 kts | 142° |
| 2026-05-05 19:04 | 45.04745 | 15.90495 | 36991 ft | 457 kts | 142° |
| 2026-05-05 19:04 | 44.99926 | 15.96376 | 36989 ft | 458 kts | 142° |
| 2026-05-05 19:05 | 44.95094 | 16.02256 | 37004 ft | 459 kts | 142° |
| 2026-05-05 19:05 | 44.90251 | 16.08143 | 37009 ft | 460 kts | 142° |
| 2026-05-05 19:06 | 44.85399 | 16.14036 | 37016 ft | 460 kts | 142° |
| 2026-05-05 19:06 | 44.80545 | 16.19917 | 37003 ft | 460 kts | 142° |
| 2026-05-05 19:07 | 44.76500 | 16.24805 | 37006 ft | 460 kts | 143° |
| 2026-05-05 19:07 | 44.71628 | 16.30673 | 37021 ft | 461 kts | 143° |
| 2026-05-05 19:08 | 44.66745 | 16.36527 | 37039 ft | 462 kts | 143° |
| 2026-05-05 19:08 | 44.61853 | 16.42380 | 37035 ft | 462 kts | 143° |
| 2026-05-05 19:09 | 44.56961 | 16.48234 | 37029 ft | 462 kts | 143° |
| 2026-05-05 19:09 | 44.52065 | 16.54089 | 37028 ft | 463 kts | 142° |
| 2026-05-05 19:10 | 44.47176 | 16.59918 | 37039 ft | 465 kts | 143° |
| 2026-05-05 19:10 | 44.42240 | 16.65779 | 37045 ft | 465 kts | 143° |
| 2026-05-05 19:11 | 44.37300 | 16.71635 | 37068 ft | 466 kts | 143° |
| 2026-05-05 19:11 | 44.32358 | 16.77480 | 37059 ft | 465 kts | 143° |
| 2026-05-05 19:12 | 44.27405 | 16.83331 | 37065 ft | 466 kts | 143° |
| 2026-05-05 19:12 | 44.22445 | 16.89171 | 37068 ft | 467 kts | 143° |
| 2026-05-05 19:13 | 44.17478 | 16.95014 | 37088 ft | 467 kts | 143° |
| 2026-05-05 19:13 | 44.12505 | 17.00840 | 37096 ft | 467 kts | 143° |
| 2026-05-05 19:14 | 44.07529 | 17.06660 | 37079 ft | 467 kts | 143° |
| 2026-05-05 19:14 | 44.02544 | 17.12482 | 37077 ft | 468 kts | 143° |
| 2026-05-05 19:15 | 43.97542 | 17.18295 | 37079 ft | 469 kts | 143° |
| 2026-05-05 19:15 | 43.92564 | 17.24069 | 37081 ft | 469 kts | 143° |
| 2026-05-05 19:16 | 43.87548 | 17.29888 | 37090 ft | 470 kts | 143° |
| 2026-05-05 19:16 | 43.82531 | 17.35692 | 37074 ft | 470 kts | 143° |
| 2026-05-05 19:17 | 43.77504 | 17.41490 | 37079 ft | 471 kts | 143° |
| 2026-05-05 19:17 | 43.72464 | 17.47286 | 37079 ft | 471 kts | 143° |
| 2026-05-05 19:18 | 43.67419 | 17.53088 | 37086 ft | 471 kts | 143° |
| 2026-05-05 19:18 | 43.62372 | 17.58875 | 37083 ft | 471 kts | 143° |
| 2026-05-05 19:19 | 43.57345 | 17.64612 | 37077 ft | 472 kts | 143° |
| 2026-05-05 19:19 | 43.52280 | 17.70388 | 37083 ft | 473 kts | 143° |
| 2026-05-05 19:20 | 43.47200 | 17.76172 | 37088 ft | 474 kts | 143° |
| 2026-05-05 19:20 | 43.42119 | 17.81944 | 37084 ft | 473 kts | 143° |
| 2026-05-05 19:21 | 43.37039 | 17.87704 | 37085 ft | 473 kts | 143° |
| 2026-05-05 19:21 | 43.31953 | 17.93453 | 37084 ft | 473 kts | 143° |
| 2026-05-05 19:22 | 43.26864 | 17.99193 | 37084 ft | 473 kts | 143° |
| 2026-05-05 19:22 | 43.21768 | 18.04924 | 37091 ft | 473 kts | 143° |
| 2026-05-05 19:23 | 43.16677 | 18.10643 | 37098 ft | 473 kts | 143° |
| 2026-05-05 19:23 | 43.11573 | 18.16352 | 37084 ft | 474 kts | 143° |
| 2026-05-05 19:24 | 43.06461 | 18.22061 | 37081 ft | 475 kts | 143° |
| 2026-05-05 19:24 | 43.01347 | 18.27778 | 37081 ft | 475 kts | 143° |
| 2026-05-05 19:25 | 42.96249 | 18.33459 | 37083 ft | 476 kts | 143° |
| 2026-05-05 19:25 | 42.91110 | 18.39165 | 37078 ft | 477 kts | 143° |
| 2026-05-05 19:26 | 42.85962 | 18.44875 | 37078 ft | 478 kts | 143° |
| 2026-05-05 19:26 | 42.80796 | 18.50578 | 37085 ft | 478 kts | 143° |
| 2026-05-05 19:27 | 42.75624 | 18.56279 | 37084 ft | 478 kts | 143° |
| 2026-05-05 19:27 | 42.70453 | 18.61973 | 37085 ft | 478 kts | 143° |
| 2026-05-05 19:28 | 42.65282 | 18.67649 | 37069 ft | 478 kts | 143° |
| 2026-05-05 19:28 | 42.60101 | 18.73330 | 37067 ft | 478 kts | 143° |
| 2026-05-05 19:29 | 42.54919 | 18.79003 | 37079 ft | 479 kts | 143° |
| 2026-05-05 19:29 | 42.49730 | 18.84669 | 37094 ft | 479 kts | 143° |
| 2026-05-05 19:30 | 42.44558 | 18.90290 | 37098 ft | 479 kts | 144° |
| 2026-05-05 19:30 | 42.39351 | 18.95937 | 37081 ft | 480 kts | 143° |
| 2026-05-05 19:31 | 42.34136 | 19.01586 | 37093 ft | 480 kts | 143° |
| 2026-05-05 19:31 | 42.28919 | 19.07230 | 37097 ft | 481 kts | 144° |
| 2026-05-05 19:32 | 42.23695 | 19.12869 | 37106 ft | 481 kts | 143° |
| 2026-05-05 19:32 | 42.18460 | 19.18501 | 37070 ft | 481 kts | 144° |
| 2026-05-05 19:33 | 42.13227 | 19.24128 | 37076 ft | 482 kts | 143° |
| 2026-05-05 19:33 | 42.08022 | 19.29723 | 37076 ft | 482 kts | 144° |
| 2026-05-05 19:34 | 42.02767 | 19.35335 | 37073 ft | 482 kts | 144° |
| 2026-05-05 19:35 | 41.94881 | 19.43739 | 37069 ft | 482 kts | 144° |
| 2026-05-05 19:35 | 41.89620 | 19.49345 | 37079 ft | 483 kts | 144° |
| 2026-05-05 19:36 | 41.84346 | 19.54949 | 37083 ft | 484 kts | 144° |
| 2026-05-05 19:36 | 41.79068 | 19.60541 | 37088 ft | 484 kts | 144° |
| 2026-05-05 19:37 | 41.73780 | 19.66133 | 37094 ft | 484 kts | 144° |
| 2026-05-05 19:37 | 41.68482 | 19.71719 | 37089 ft | 485 kts | 144° |
| 2026-05-05 19:38 | 41.63175 | 19.77303 | 37091 ft | 486 kts | 144° |
| 2026-05-05 19:38 | 41.57857 | 19.82884 | 37108 ft | 486 kts | 143° |
| 2026-05-05 19:39 | 41.52531 | 19.88469 | 37105 ft | 487 kts | 144° |
| 2026-05-05 19:39 | 41.47228 | 19.94008 | 37114 ft | 487 kts | 144° |
| 2026-05-05 19:40 | 41.41888 | 19.99581 | 37095 ft | 487 kts | 144° |
| 2026-05-05 19:40 | 41.36541 | 20.05153 | 37094 ft | 488 kts | 144° |
| 2026-05-05 19:41 | 41.31194 | 20.10713 | 37104 ft | 488 kts | 144° |
| 2026-05-05 19:41 | 41.25831 | 20.16272 | 37109 ft | 488 kts | 143° |
| 2026-05-05 19:42 | 41.20469 | 20.21818 | 37104 ft | 489 kts | 143° |
| 2026-05-05 19:42 | 41.15099 | 20.27373 | 37111 ft | 490 kts | 143° |
| 2026-05-05 19:43 | 41.09718 | 20.32926 | 37118 ft | 490 kts | 144° |
| 2026-05-05 19:43 | 41.04324 | 20.38452 | 37119 ft | 490 kts | 144° |
| 2026-05-05 19:44 | 40.98919 | 20.43978 | 37124 ft | 490 kts | 144° |
| 2026-05-05 19:44 | 40.93565 | 20.49466 | 37132 ft | 490 kts | 143° |
| 2026-05-05 19:45 | 40.88172 | 20.54999 | 37127 ft | 491 kts | 143° |
| 2026-05-05 19:45 | 40.82766 | 20.60518 | 37125 ft | 491 kts | 144° |
| 2026-05-05 19:46 | 40.77348 | 20.66013 | 37122 ft | 491 kts | 144° |
| 2026-05-05 19:46 | 40.71927 | 20.71516 | 37123 ft | 491 kts | 144° |
| 2026-05-05 19:47 | 40.66510 | 20.77010 | 37113 ft | 491 kts | 144° |
| 2026-05-05 19:47 | 40.61082 | 20.82485 | 37123 ft | 492 kts | 143° |
| 2026-05-05 19:48 | 40.55646 | 20.87961 | 37113 ft | 492 kts | 143° |
| 2026-05-05 19:48 | 40.50215 | 20.93429 | 37115 ft | 492 kts | 143° |
| 2026-05-05 19:49 | 40.44852 | 20.99022 | 37102 ft | 493 kts | 140° |
| 2026-05-05 19:49 | 40.39752 | 21.04965 | 37098 ft | 493 kts | 138° |
| 2026-05-05 19:50 | 40.34691 | 21.11022 | 37101 ft | 493 kts | 139° |
| 2026-05-05 19:50 | 40.29563 | 21.16990 | 37103 ft | 493 kts | 139° |
| 2026-05-05 19:51 | 40.24392 | 21.22879 | 37103 ft | 493 kts | 139° |
| 2026-05-05 19:51 | 40.19213 | 21.28764 | 37100 ft | 493 kts | 139° |
| 2026-05-05 19:52 | 40.14045 | 21.34660 | 37090 ft | 493 kts | 139° |
| 2026-05-05 19:52 | 40.08908 | 21.40526 | 37091 ft | 493 kts | 139° |
| 2026-05-05 19:53 | 40.03736 | 21.46414 | 37089 ft | 494 kts | 140° |
| 2026-05-05 19:53 | 39.98549 | 21.52304 | 37090 ft | 494 kts | 140° |
| 2026-05-05 19:54 | 39.93356 | 21.58174 | 37082 ft | 494 kts | 140° |
| 2026-05-05 19:54 | 39.88163 | 21.64045 | 37076 ft | 494 kts | 140° |
| 2026-05-05 19:55 | 39.82961 | 21.69912 | 37081 ft | 494 kts | 140° |
| 2026-05-05 19:55 | 39.77783 | 21.75724 | 37084 ft | 495 kts | 140° |
| 2026-05-05 19:56 | 39.72575 | 21.81582 | 37078 ft | 495 kts | 140° |
| 2026-05-05 19:56 | 39.67365 | 21.87436 | 37069 ft | 495 kts | 140° |
| 2026-05-05 19:57 | 39.63022 | 21.92298 | 37053 ft | 496 kts | 140° |
| 2026-05-05 19:57 | 39.57790 | 21.98129 | 37049 ft | 496 kts | 140° |
| 2026-05-05 19:58 | 39.52553 | 22.03954 | 37050 ft | 496 kts | 140° |
| 2026-05-05 19:58 | 39.47299 | 22.09782 | 37048 ft | 496 kts | 140° |
| 2026-05-05 19:59 | 39.42084 | 22.15567 | 37061 ft | 497 kts | 140° |
| 2026-05-05 19:59 | 39.36823 | 22.21386 | 37041 ft | 497 kts | 140° |
| 2026-05-05 20:00 | 39.31553 | 22.27201 | 37045 ft | 498 kts | 141° |
| 2026-05-05 20:00 | 39.26274 | 22.33013 | 37042 ft | 499 kts | 141° |
| 2026-05-05 20:01 | 39.20984 | 22.38840 | 37063 ft | 500 kts | 140° |
| 2026-05-05 20:01 | 39.15737 | 22.44612 | 37063 ft | 499 kts | 141° |
| 2026-05-05 20:02 | 39.10436 | 22.50417 | 37042 ft | 500 kts | 141° |
| 2026-05-05 20:02 | 39.05122 | 22.56223 | 37048 ft | 501 kts | 141° |
| 2026-05-05 20:03 | 38.99806 | 22.62023 | 37050 ft | 501 kts | 141° |
| 2026-05-05 20:03 | 38.94480 | 22.67823 | 37054 ft | 502 kts | 141° |
| 2026-05-05 20:04 | 38.89149 | 22.73612 | 37062 ft | 502 kts | 141° |
| 2026-05-05 20:04 | 38.83813 | 22.79402 | 37071 ft | 502 kts | 141° |
| 2026-05-05 20:05 | 38.78472 | 22.85182 | 37060 ft | 503 kts | 141° |
| 2026-05-05 20:05 | 38.73124 | 22.90963 | 37063 ft | 503 kts | 141° |
| 2026-05-05 20:06 | 38.67802 | 22.96696 | 37063 ft | 503 kts | 141° |
| 2026-05-05 20:06 | 38.62433 | 23.02464 | 37067 ft | 503 kts | 141° |
| 2026-05-05 20:07 | 38.57071 | 23.08228 | 37069 ft | 504 kts | 141° |
| 2026-05-05 20:07 | 38.51705 | 23.13985 | 37067 ft | 504 kts | 141° |
| 2026-05-05 20:08 | 38.46319 | 23.19742 | 37066 ft | 505 kts | 141° |
| 2026-05-05 20:08 | 38.40924 | 23.25487 | 37069 ft | 505 kts | 141° |
| 2026-05-05 20:09 | 38.35530 | 23.31232 | 37071 ft | 506 kts | 141° |
| 2026-05-05 20:09 | 38.30129 | 23.36977 | 37081 ft | 506 kts | 141° |
| 2026-05-05 20:10 | 38.24720 | 23.42712 | 37078 ft | 506 kts | 141° |
| 2026-05-05 20:10 | 38.19341 | 23.48402 | 37088 ft | 506 kts | 141° |
| 2026-05-05 20:11 | 38.13917 | 23.54125 | 37081 ft | 507 kts | 141° |
| 2026-05-05 20:11 | 38.08489 | 23.59852 | 37081 ft | 507 kts | 141° |
| 2026-05-05 20:12 | 38.03051 | 23.65572 | 37083 ft | 507 kts | 141° |
| 2026-05-05 20:12 | 37.97607 | 23.71278 | 37076 ft | 507 kts | 141° |
| 2026-05-05 20:13 | 37.92167 | 23.76988 | 37092 ft | 508 kts | 141° |
| 2026-05-05 20:13 | 37.87061 | 23.83153 | 37078 ft | 508 kts | 129° |
| 2026-05-05 20:14 | 37.82512 | 23.90019 | 37074 ft | 509 kts | 130° |
| 2026-05-05 20:14 | 37.77930 | 23.96860 | 37071 ft | 510 kts | 130° |
| 2026-05-05 20:15 | 37.73368 | 24.03649 | 37071 ft | 510 kts | 130° |
| 2026-05-05 20:15 | 37.68781 | 24.10489 | 37070 ft | 511 kts | 130° |
| 2026-05-05 20:16 | 37.64169 | 24.17336 | 37070 ft | 511 kts | 130° |
| 2026-05-05 20:16 | 37.59554 | 24.24164 | 37066 ft | 511 kts | 130° |
| 2026-05-05 20:17 | 37.54570 | 24.30531 | 37070 ft | 510 kts | 143° |
| 2026-05-05 20:17 | 37.48654 | 24.35417 | 37067 ft | 508 kts | 150° |
| 2026-05-05 20:18 | 37.42650 | 24.40132 | 37082 ft | 509 kts | 150° |
| 2026-05-05 20:18 | 37.36642 | 24.44853 | 37053 ft | 510 kts | 150° |
| 2026-05-05 20:19 | 37.30613 | 24.49566 | 37055 ft | 511 kts | 150° |
| 2026-05-05 20:19 | 37.24576 | 24.54282 | 37061 ft | 511 kts | 150° |
| 2026-05-05 20:20 | 37.18533 | 24.58998 | 37065 ft | 512 kts | 150° |
| 2026-05-05 20:20 | 37.12525 | 24.63683 | 37057 ft | 512 kts | 150° |
| 2026-05-05 20:21 | 37.06473 | 24.68385 | 37066 ft | 512 kts | 150° |
| 2026-05-05 20:21 | 37.00415 | 24.73070 | 37075 ft | 512 kts | 150° |
| 2026-05-05 20:21 | 36.97385 | 24.75410 | 36847 ft | 511 kts | 150° |
| 2026-05-05 20:22 | 36.94361 | 24.77745 | 36137 ft | 512 kts | 149° |
| 2026-05-05 20:22 | 36.91324 | 24.80090 | 35367 ft | 514 kts | 149° |
| 2026-05-05 20:22 | 36.88270 | 24.82454 | 34579 ft | 517 kts | 148° |
| 2026-05-05 20:22 | 36.85199 | 24.84834 | 33772 ft | 520 kts | 147° |
| 2026-05-05 20:23 | 36.82126 | 24.87216 | 32965 ft | 520 kts | 148° |
| 2026-05-05 20:23 | 36.79048 | 24.89596 | 32215 ft | 519 kts | 148° |
| 2026-05-05 20:23 | 36.75991 | 24.91956 | 31671 ft | 514 kts | 148° |
| 2026-05-05 20:23 | 36.72962 | 24.94291 | 31126 ft | 509 kts | 149° |
| 2026-05-05 20:24 | 36.69962 | 24.96597 | 30569 ft | 503 kts | 149° |
| 2026-05-05 20:24 | 36.67009 | 24.98865 | 29662 ft | 495 kts | 149° |
| 2026-05-05 20:24 | 36.64104 | 25.01092 | 28667 ft | 487 kts | 149° |
| 2026-05-05 20:24 | 36.61231 | 25.03296 | 27661 ft | 481 kts | 150° |
| 2026-05-05 20:25 | 36.58406 | 25.05461 | 26710 ft | 474 kts | 149° |
| 2026-05-05 20:25 | 36.55622 | 25.07597 | 25816 ft | 466 kts | 150° |
| 2026-05-05 20:25 | 36.52879 | 25.09695 | 25016 ft | 463 kts | 150° |
| 2026-05-05 20:25 | 36.50144 | 25.11778 | 24546 ft | 457 kts | 150° |
| 2026-05-05 20:26 | 36.47440 | 25.13836 | 24065 ft | 453 kts | 150° |
| 2026-05-05 20:26 | 36.44764 | 25.15868 | 23558 ft | 449 kts | 150° |
| 2026-05-05 20:26 | 36.42142 | 25.17863 | 23021 ft | 445 kts | 150° |
| 2026-05-05 20:26 | 36.39513 | 25.19865 | 22502 ft | 441 kts | 150° |
| 2026-05-05 20:27 | 36.36908 | 25.21847 | 22008 ft | 437 kts | 150° |
| 2026-05-05 20:27 | 36.34326 | 25.23810 | 21523 ft | 433 kts | 150° |
| 2026-05-05 20:27 | 36.31772 | 25.25752 | 21033 ft | 429 kts | 149° |
| 2026-05-05 20:27 | 36.29235 | 25.27682 | 20572 ft | 425 kts | 149° |
| 2026-05-05 20:28 | 36.26723 | 25.29593 | 20118 ft | 422 kts | 149° |
| 2026-05-05 20:28 | 36.24230 | 25.31487 | 19674 ft | 418 kts | 149° |
| 2026-05-05 20:28 | 36.21758 | 25.33361 | 19260 ft | 415 kts | 149° |
| 2026-05-05 20:28 | 36.19308 | 25.35213 | 18833 ft | 412 kts | 149° |
| 2026-05-05 20:29 | 36.16871 | 25.37051 | 18411 ft | 408 kts | 149° |
| 2026-05-05 20:29 | 36.14451 | 25.38872 | 17958 ft | 405 kts | 149° |
| 2026-05-05 20:29 | 36.11996 | 25.40532 | 17515 ft | 400 kts | 158° |
| 2026-05-05 20:29 | 36.09395 | 25.41670 | 17027 ft | 393 kts | 163° |
| 2026-05-05 20:30 | 36.06805 | 25.42711 | 16390 ft | 389 kts | 163° |
| 2026-05-05 20:30 | 36.04243 | 25.43738 | 15801 ft | 385 kts | 163° |
| 2026-05-05 20:30 | 36.01708 | 25.44756 | 15313 ft | 382 kts | 162° |
| 2026-05-05 20:30 | 35.99197 | 25.45767 | 14927 ft | 378 kts | 162° |
| 2026-05-05 20:31 | 35.96704 | 25.46773 | 14535 ft | 374 kts | 162° |
| 2026-05-05 20:31 | 35.94244 | 25.47767 | 14151 ft | 371 kts | 162° |
| 2026-05-05 20:31 | 35.91799 | 25.48755 | 13755 ft | 367 kts | 161° |
| 2026-05-05 20:31 | 35.89382 | 25.49727 | 13325 ft | 364 kts | 161° |
| 2026-05-05 20:32 | 35.86976 | 25.50690 | 12874 ft | 362 kts | 161° |
| 2026-05-05 20:32 | 35.84590 | 25.51643 | 12434 ft | 359 kts | 161° |
| 2026-05-05 20:32 | 35.82256 | 25.52577 | 12014 ft | 356 kts | 161° |
| 2026-05-05 20:32 | 35.79915 | 25.53513 | 11737 ft | 349 kts | 161° |
| 2026-05-05 20:33 | 35.77631 | 25.54422 | 11588 ft | 330 kts | 161° |
| 2026-05-05 20:33 | 35.75520 | 25.55261 | 11188 ft | 318 kts | 161° |
| 2026-05-05 20:33 | 35.73431 | 25.56096 | 10635 ft | 314 kts | 161° |
| 2026-05-05 20:33 | 35.71356 | 25.56883 | 10057 ft | 312 kts | 167° |
| 2026-05-05 20:34 | 35.69205 | 25.57143 | 9695 ft | 310 kts | 182° |
| 2026-05-05 20:34 | 35.67085 | 25.56764 | 9328 ft | 307 kts | 197° |
| 2026-05-05 20:34 | 35.65044 | 25.55992 | 8943 ft | 306 kts | 198° |
| 2026-05-05 20:34 | 35.63020 | 25.55217 | 8559 ft | 304 kts | 198° |
| 2026-05-05 20:35 | 35.61006 | 25.54450 | 8172 ft | 299 kts | 198° |
| 2026-05-05 20:35 | 35.59060 | 25.53710 | 7793 ft | 287 kts | 198° |
| 2026-05-05 20:35 | 35.57184 | 25.52997 | 7418 ft | 276 kts | 198° |
| 2026-05-05 20:35 | 35.55377 | 25.52309 | 7037 ft | 267 kts | 198° |
| 2026-05-05 20:36 | 35.53617 | 25.51639 | 6587 ft | 264 kts | 198° |
| 2026-05-05 20:36 | 35.51886 | 25.50979 | 6100 ft | 263 kts | 198° |
| 2026-05-05 20:36 | 35.50149 | 25.50316 | 5623 ft | 260 kts | 199° |
| 2026-05-05 20:36 | 35.48445 | 25.49658 | 5164 ft | 252 kts | 199° |
| 2026-05-05 20:37 | 35.46827 | 25.49025 | 4971 ft | 235 kts | 199° |
| 2026-05-05 20:37 | 35.45818 | 25.48638 | 4938 ft | 224 kts | 199° |
| 2026-05-05 20:37 | 35.43895 | 25.47912 | 4893 ft | 209 kts | 199° |
| 2026-05-05 20:37 | 35.42509 | 25.47391 | 4803 ft | 207 kts | 199° |
| 2026-05-05 20:38 | 35.41142 | 25.46875 | 4699 ft | 205 kts | 199° |
| 2026-05-05 20:38 | 35.39779 | 25.46361 | 4616 ft | 204 kts | 199° |
| 2026-05-05 20:38 | 35.38425 | 25.45849 | 4529 ft | 203 kts | 199° |
| 2026-05-05 20:38 | 35.37098 | 25.45258 | 4433 ft | 202 kts | 212° |
| 2026-05-05 20:39 | 35.36044 | 25.44171 | 4315 ft | 198 kts | 235° |
| 2026-05-05 20:39 | 35.35394 | 25.42745 | 4047 ft | 192 kts | 249° |
| 2026-05-05 20:39 | 35.34833 | 25.41270 | 3796 ft | 190 kts | 248° |
| 2026-05-05 20:39 | 35.34273 | 25.39817 | 3556 ft | 187 kts | 248° |
| 2026-05-05 20:40 | 35.33718 | 25.38385 | 3326 ft | 185 kts | 248° |
| 2026-05-05 20:40 | 35.33170 | 25.36965 | 3099 ft | 183 kts | 248° |
| 2026-05-05 20:40 | 35.32809 | 25.35504 | 2857 ft | 177 kts | 268° |
| 2026-05-05 20:40 | 35.32864 | 25.34012 | 2642 ft | 175 kts | 277° |
| 2026-05-05 20:41 | 35.32970 | 25.32527 | 2422 ft | 175 kts | 275° |
| 2026-05-05 20:41 | 35.33073 | 25.31029 | 2210 ft | 176 kts | 275° |
| 2026-05-05 20:41 | 35.33177 | 25.29531 | 1992 ft | 175 kts | 275° |
| 2026-05-05 20:41 | 35.33278 | 25.28076 | 1730 ft | 166 kts | 275° |
| 2026-05-05 20:42 | 35.33372 | 25.26719 | 1492 ft | 154 kts | 274° |
| 2026-05-05 20:42 | 35.33458 | 25.25472 | 1267 ft | 141 kts | 273° |
| 2026-05-05 20:42 | 35.33540 | 25.24303 | 1059 ft | 139 kts | 272° |
| 2026-05-05 20:42 | 35.33620 | 25.23128 | 834 ft | 139 kts | 271° |
| 2026-05-05 20:43 | 35.33701 | 25.21947 | 584 ft | 139 kts | 271° |
| 2026-05-05 20:43 | 35.33793 | 25.20765 | 367 ft | 139 kts | 271° |
| 2026-05-05 20:43 | 35.33870 | 25.19586 | 201 ft | 139 kts | 269° |
| 2026-05-05 20:43 | 35.33951 | 25.18412 | 96 ft | 134 kts | 272° |
| 2026-05-05 20:44 | 35.34010 | 25.17443 | 91 ft | 91 kts | 275° |
| 2026-05-05 20:44 | 35.34051 | 25.16887 | 90 ft | 37 kts | 277° |
| 2026-05-05 20:44 | 35.34019 | 25.16798 | 90 ft | 2 kts | 152° |
| 2026-05-05 20:44 | 35.34000 | 25.16842 | 90 ft | 10 kts | 119° |
| 2026-05-05 20:45 | 35.33937 | 25.17132 | 90 ft | 22 kts | 95° |
| 2026-05-05 20:45 | 35.33924 | 25.17325 | 91 ft | 24 kts | 95° |
| 2026-05-05 20:45 | 35.33910 | 25.17525 | 92 ft | 22 kts | 95° |
| 2026-05-05 20:46 | 35.33876 | 25.17626 | 91 ft | 11 kts | 169° |
| 2026-05-05 20:46 | 35.33821 | 25.17620 | 92 ft | 13 kts | 186° |
| 2026-05-05 20:46 | 35.33762 | 25.17609 | 91 ft | 5 kts | 212° |
| 2026-05-05 20:46 | 35.33756 | 25.17579 | 91 ft | 3 kts | 269° |
| 2026-05-05 20:47 | 35.33758 | 25.17554 | 91 ft | 3 kts | 276° |
| 2026-05-05 20:47 | 35.33759 | 25.17536 | 91 ft | 1 kts | 275° |
| 2026-05-05 20:47 | 35.33760 | 25.17535 | 91 ft | 0 kts | 275° |